Stations météo

réclame
Mon MeteoGroup
Beitem, Belgique (6414): Température de l'air & dewpoint: 18.11.2017 15:00:00 - 24.11.2017 15:00:00 (CET)Beitem, Belgique (6414): Vitesse du vent & gusts: 18.11.2017 15:00:00 - 24.11.2017 15:00:00 (CET)Beitem, Belgique (6414): Direction du vent: 18.11.2017 15:00:00 - 24.11.2017 15:00:00 (CET)Beitem, Belgique (6414): reduced air pressure: 18.11.2017 15:00:00 - 24.11.2017 15:00:00 (CET)Beitem, Belgique (6414): Ensoleillement: 18.11.2017 15:00:00 - 24.11.2017 15:00:00 (CET)Beitem, Belgique (6414): Quantités de précipitations: 18.11.2017 15:00:00 - 24.11.2017 15:00:00 (CET)
Date & Time tt [°C] td [°C] ff [km/h] ff [knt] fx [km/h] fx [knt] dd ppp [hPa] sd [min] rr [mm]
24.11.2017 15:00:00 - - - - - - - - - -
24.11.2017 14:00:00 10,1 6,2 12 7 20 11 SW 1012,0 40 0,0
24.11.2017 13:00:00 10,1 6,4 11 6 19 11 SW 1012,0 28 0,0
24.11.2017 12:00:00 9,5 7,1 10 6 16 9 SSW 1011,8 60 0,0
24.11.2017 11:00:00 8,7 7,3 8 4 17 9 WSW 1011,2 60 0,0
24.11.2017 10:00:00 7,0 6,7 9 5 13 7 SW 1010,9 34 0,0
24.11.2017 09:00:00 6,4 6,4 7 4 9 5 SW 1009,8 0 0,0
24.11.2017 08:00:00 6,9 6,7 6 4 9 5 WSW 1009,1 0 0,0
24.11.2017 07:00:00 6,8 6,6 4 2 9 5 WNW 1008,1 0 0,0
24.11.2017 06:00:00 7,0 6,7 9 5 15 8 NW 1007,5 0 0,0
24.11.2017 05:00:00 7,2 6,9 4 2 13 7 SSE 1006,3 0 2,6
24.11.2017 04:00:00 7,5 7,0 10 6 16 9 SW 1007,8 0 1,9
24.11.2017 03:00:00 7,3 7,0 4 2 5 3 NNW 1007,4 0 0,8
24.11.2017 02:00:00 7,4 6,7 5 3 6 4 NW 1008,1 0 0,4
24.11.2017 01:00:00 7,7 6,4 4 2 14 8 W 1008,5 0 0,1
24.11.2017 00:00:00 7,6 5,7 10 5 17 9 SSW 1009,1 0 0,0
23.11.2017 23:00:00 8,5 6,4 11 6 23 12 S 1009,0 0 0,0
23.11.2017 22:00:00 8,5 6,7 13 7 23 13 SSW 1009,2 0 0,0
23.11.2017 21:00:00 8,1 6,4 14 8 22 12 SSW 1009,1 0 0,0
23.11.2017 20:00:00 7,2 5,5 9 5 14 8 S 1008,5 0 0,0
23.11.2017 19:00:00 7,8 5,5 7 4 16 9 SSW 1008,1 0 0,0
23.11.2017 18:00:00 8,1 5,4 12 6 21 11 SSW 1007,3 0 0,0
23.11.2017 17:00:00 9,8 5,4 14 7 29 16 SW 1006,2 38 0,0
23.11.2017 16:00:00 11,7 6,6 18 10 40 22 WSW 1005,4 30 0,0
23.11.2017 15:00:00 12,0 8,6 18 10 48 26 WSW 1004,7 3 0,0
23.11.2017 14:00:00 12,1 8,1 27 15 52 28 W 1003,5 0 0,0
23.11.2017 13:00:00 13,0 10,1 32 18 58 31 W 1001,9 0 0,7
23.11.2017 12:00:00 13,3 12,0 22 12 47 25 SSW 1000,5 4 0,1
23.11.2017 11:00:00 13,0 11,2 26 14 37 20 SSW 999,7 0 0,3
23.11.2017 10:00:00 12,1 11,3 29 15 51 27 SSW 998,9 0 0,1
23.11.2017 09:00:00 12,1 10,7 32 17 70 38 SSW 997,5 0 0,8
23.11.2017 08:00:00 13,2 8,4 38 21 60 32 SSW 995,8 0 0,1
23.11.2017 07:00:00 12,8 6,7 32 18 61 33 S 994,8 0 0,0
23.11.2017 06:00:00 12,7 6,0 35 19 60 32 S 994,9 0 0,0
23.11.2017 05:00:00 12,6 5,7 32 18 57 31 S 995,4 0 0,0
23.11.2017 04:00:00 12,9 5,3 32 17 57 31 S 996,5 0 0,0
23.11.2017 03:00:00 12,6 4,9 29 15 45 24 S 997,1 0 0,0
23.11.2017 02:00:00 12,2 5,2 26 14 42 23 S 998,2 0 0,0
23.11.2017 01:00:00 12,2 5,3 25 14 48 26 S 998,2 0 0,0
23.11.2017 00:00:00 11,8 5,3 31 17 45 25 S 999,2 0 0,0
22.11.2017 23:00:00 11,0 5,2 27 15 46 25 S 999,8 0 0,0
22.11.2017 22:00:00 11,4 5,0 29 16 47 25 S 999,9 0 0,0
22.11.2017 21:00:00 11,1 5,1 23 13 52 28 S 1000,3 0 0,0
22.11.2017 20:00:00 11,4 5,0 29 16 46 25 S 1000,9 0 0,0
22.11.2017 19:00:00 11,1 5,6 25 14 38 21 S 1001,8 0 0,0
22.11.2017 18:00:00 11,2 6,1 14 8 26 14 SSE 1002,4 0 0,0
22.11.2017 17:00:00 12,1 6,3 20 11 35 19 S 1002,8 42 0,0
22.11.2017 16:00:00 12,9 6,8 21 11 41 22 S 1003,2 60 0,0
22.11.2017 15:00:00 13,2 7,2 26 14 46 25 S 1004,1 60 0,0
22.11.2017 14:00:00 13,0 8,0 24 13 41 22 S 1004,7 60 0,0
22.11.2017 13:00:00 12,2 8,1 25 14 38 21 S 1005,9 60 0,0
22.11.2017 12:00:00 11,6 8,2 31 17 45 24 S 1006,4 60 0,0
22.11.2017 11:00:00 10,8 8,2 25 14 46 25 S 1007,2 60 0,1
22.11.2017 10:00:00 10,2 8,3 24 13 40 21 S 1007,2 32 0,0
22.11.2017 09:00:00 10,1 8,3 24 13 45 25 S 1007,6 0 0,1
22.11.2017 08:00:00 10,6 8,6 27 15 43 23 S 1007,4 0 0,0
22.11.2017 07:00:00 10,5 8,7 18 10 33 18 S 1007,4 0 0,0
22.11.2017 06:00:00 10,7 8,6 20 11 34 19 S 1007,7 0 0,0
22.11.2017 05:00:00 11,0 8,7 23 12 34 18 S 1007,8 0 0,0
22.11.2017 04:00:00 11,0 8,6 20 11 39 21 S 1008,2 0 0,0
22.11.2017 03:00:00 11,0 8,5 22 12 34 18 S 1008,7 0 0,0
22.11.2017 02:00:00 11,2 8,5 18 10 35 19 S 1009,4 0 0,0
22.11.2017 01:00:00 11,2 8,5 22 12 34 18 SSW 1009,7 0 0,0
22.11.2017 00:00:00 10,8 8,7 17 9 35 19 S 1009,5 0 0,0
21.11.2017 23:00:00 10,8 8,6 22 12 32 18 SSW 1010,0 0 0,0
21.11.2017 22:00:00 10,8 8,6 22 12 36 20 SSW 1010,7 0 0,0
21.11.2017 21:00:00 10,9 8,6 21 11 33 18 SSW 1011,2 0 0,0
21.11.2017 20:00:00 11,0 8,8 18 10 33 18 SSW 1011,3 0 0,0
21.11.2017 19:00:00 11,2 8,8 22 12 32 18 SSW 1011,5 0 0,0
21.11.2017 18:00:00 11,2 9,0 21 11 31 17 SSW 1011,7 0 0,0
21.11.2017 17:00:00 11,4 9,1 19 10 32 17 SSW 1012,2 0 0,0
21.11.2017 16:00:00 11,7 9,4 18 10 30 16 SSW 1012,2 0 0,0
21.11.2017 15:00:00 - - - - - - - - 0 -
21.11.2017 14:00:00 11,8 9,7 21 12 36 19 SW 1013,0 0 0,0
21.11.2017 13:00:00 11,7 9,5 22 12 36 19 SW 1013,7 0 0,0
21.11.2017 12:00:00 11,6 9,9 19 10 34 18 SW 1014,2 0 0,0
21.11.2017 11:00:00 11,6 10,3 21 11 34 18 SW 1014,3 0 0,0
21.11.2017 10:00:00 11,5 11,1 17 9 31 17 SW 1014,1 0 0,0
21.11.2017 09:00:00 12,2 11,2 20 11 37 20 SW 1013,7 0 0,0
21.11.2017 08:00:00 12,3 11,4 22 12 37 20 WSW 1013,4 0 0,0
21.11.2017 07:00:00 12,1 11,6 22 12 38 21 WSW 1013,2 0 0,1
21.11.2017 06:00:00 12,0 11,8 17 9 31 17 WSW 1013,5 0 0,1
21.11.2017 05:00:00 12,1 11,6 18 10 36 20 W 1013,6 0 0,6
21.11.2017 04:00:00 12,0 11,8 18 10 34 19 W 1014,0 0 1,0
21.11.2017 03:00:00 12,0 11,8 15 8 32 17 WSW 1014,0 0 0,5
21.11.2017 02:00:00 12,1 11,7 19 10 37 20 W 1014,0 0 0,3
21.11.2017 01:00:00 12,2 11,6 22 12 31 17 W 1014,4 0 0,0
21.11.2017 00:00:00 12,1 11,6 19 10 33 18 W 1014,1 0 0,9
20.11.2017 23:00:00 12,0 11,5 17 9 35 19 W 1014,0 0 0,3
20.11.2017 22:00:00 12,1 11,4 23 12 41 22 W 1014,3 0 0,2
20.11.2017 21:00:00 12,2 11,4 24 13 40 22 W 1014,1 0 0,1
20.11.2017 20:00:00 11,7 11,3 18 10 35 19 W 1014,0 0 0,5
20.11.2017 19:00:00 11,4 11,0 21 11 35 19 WSW 1013,7 0 2,1
20.11.2017 18:00:00 11,2 11,0 20 11 35 19 WSW 1014,0 0 1,9
20.11.2017 17:00:00 11,4 10,7 22 12 41 22 WSW 1014,4 0 0,0
20.11.2017 16:00:00 10,9 10,2 21 12 34 19 SW 1014,3 0 0,0
20.11.2017 15:00:00 9,8 9,6 18 10 30 16 SSW 1015,0 0 0,0
20.11.2017 14:00:00 9,1 9,0 20 11 33 18 SSW 1015,8 0 0,2
20.11.2017 13:00:00 7,8 7,8 18 10 30 16 SSW 1016,8 0 0,7
20.11.2017 12:00:00 6,9 6,8 18 10 32 18 SSW 1017,8 0 0,3
20.11.2017 11:00:00 6,1 5,8 19 10 34 19 SSW 1018,4 0 0,3
20.11.2017 10:00:00 5,4 4,8 19 10 26 14 S 1018,9 0 0,4
20.11.2017 09:00:00 5,0 3,6 14 8 20 11 S 1019,6 0 0,0
20.11.2017 08:00:00 4,5 3,0 13 7 20 11 SSW 1020,6 0 0,0
20.11.2017 07:00:00 4,0 2,5 11 6 16 9 SSW 1021,2 0 0,0
20.11.2017 06:00:00 3,4 2,0 13 7 19 10 SSW 1021,3 0 0,0
20.11.2017 05:00:00 3,4 2,0 14 7 20 11 SSW 1021,7 0 0,0
20.11.2017 04:00:00 3,1 1,9 12 7 18 10 SSW 1022,3 0 0,0
20.11.2017 03:00:00 2,9 1,8 11 6 16 9 SSW 1023,0 0 0,0
20.11.2017 02:00:00 2,6 1,7 11 6 19 10 SSW 1023,6 0 0,0
20.11.2017 01:00:00 2,9 1,9 11 6 17 9 SSW 1024,3 0 0,0
20.11.2017 00:00:00 2,7 1,8 10 5 16 8 SSW 1024,4 0 0,0
19.11.2017 23:00:00 3,3 2,0 10 5 13 7 SW 1024,8 0 0,0
19.11.2017 22:00:00 2,9 1,6 7 4 14 7 SW 1024,7 0 0,0
19.11.2017 21:00:00 3,4 1,8 10 6 15 8 WSW 1024,3 0 0,0
19.11.2017 20:00:00 3,8 2,2 10 5 15 8 WSW 1024,1 0 0,0
19.11.2017 19:00:00 4,0 2,3 11 6 20 11 WSW 1024,3 0 0,0
19.11.2017 18:00:00 5,2 3,2 12 6 22 12 W 1023,8 0 0,0
19.11.2017 17:00:00 6,1 3,4 12 6 19 11 W 1023,5 32 0,0
19.11.2017 16:00:00 7,5 3,7 16 9 25 13 WNW 1023,1 46 0,0
19.11.2017 15:00:00 8,1 4,0 15 8 27 15 WNW 1023,0 57 0,0
19.11.2017 14:00:00 8,1 3,7 20 11 28 15 WNW 1022,8 43 0,0
19.11.2017 13:00:00 8,1 4,1 14 8 27 15 NW 1022,8 27 0,0
19.11.2017 12:00:00 7,8 4,4 14 7 22 12 W 1022,6 46 0,0
19.11.2017 11:00:00 6,5 3,3 13 7 19 11 W 1022,6 60 0,0
19.11.2017 10:00:00 4,9 2,1 14 8 20 11 W 1021,9 60 0,0
19.11.2017 09:00:00 2,9 0,9 9 5 14 8 W 1021,7 12 0,0
19.11.2017 08:00:00 2,4 0,6 10 5 13 7 W 1020,9 0 0,0
19.11.2017 07:00:00 2,7 0,4 7 4 14 8 W 1020,5 0 0,0
19.11.2017 06:00:00 3,0 0,0 11 6 14 7 WNW 1020,1 0 0,0
19.11.2017 05:00:00 3,6 0,7 10 5 14 8 WNW 1019,9 0 0,0
19.11.2017 04:00:00 4,5 1,7 10 6 16 9 NW 1019,6 0 0,0
19.11.2017 03:00:00 6,1 2,7 10 5 20 11 NW 1019,5 0 0,0
19.11.2017 02:00:00 6,8 3,9 10 6 16 9 NW 1019,1 0 0,0
19.11.2017 01:00:00 6,7 3,9 7 4 20 11 NNW 1019,3 0 0,0
19.11.2017 00:00:00 7,6 5,6 12 7 18 10 NW 1019,1 0 0,0
18.11.2017 23:00:00 7,5 6,3 11 6 19 10 W 1019,0 0 0,0
18.11.2017 22:00:00 7,5 6,3 9 5 16 9 W 1019,1 0 0,0
18.11.2017 21:00:00 7,5 6,7 10 5 14 7 W 1019,2 0 0,0
18.11.2017 20:00:00 7,4 6,9 7 4 15 8 SW 1019,5 0 0,0
18.11.2017 19:00:00 7,4 7,1 11 6 21 11 WNW 1020,0 0 0,6
18.11.2017 18:00:00 7,7 7,6 9 5 16 8 W 1020,5 0 1,4
18.11.2017 17:00:00 7,7 7,1 8 4 21 11 W 1020,3 0 0,6
18.11.2017 16:00:00 8,6 7,1 14 8 35 19 W 1021,2 0 0,0
18.11.2017 15:00:00 9,0 6,1 18 10 35 19 WSW 1021,4 0 0,0

tt = Température de l'air
td = dewpoint
ff = Vitesse du vent
fx = gusts
dd = Direction du vent
ppp = reduced air pressure
sd = Ensoleillement
rr = Quantités de précipitations

stations d'obs. à proximité